sensor_id;sensor_type;location;lat;lon;timestamp;temperature;humidity
22544;DHT22;11438;52.044;8.716;2022-12-31T00:00:34;15.50;99.90
22544;DHT22;11438;52.044;8.716;2022-12-31T00:03:01;15.60;99.90
22544;DHT22;11438;52.044;8.716;2022-12-31T00:05:29;15.60;99.90
22544;DHT22;11438;52.044;8.716;2022-12-31T00:07:56;15.60;99.90
22544;DHT22;11438;52.044;8.716;2022-12-31T00:10:21;15.60;99.90
22544;DHT22;11438;52.044;8.716;2022-12-31T00:12:47;15.60;99.90
22544;DHT22;11438;52.044;8.716;2022-12-31T00:15:12;15.60;99.90
22544;DHT22;11438;52.044;8.716;2022-12-31T00:17:38;15.60;99.90
22544;DHT22;11438;52.044;8.716;2022-12-31T00:20:04;15.60;99.90
22544;DHT22;11438;52.044;8.716;2022-12-31T00:22:30;15.60;99.90
22544;DHT22;11438;52.044;8.716;2022-12-31T00:24:55;15.60;99.90
22544;DHT22;11438;52.044;8.716;2022-12-31T00:27:21;15.60;99.90
22544;DHT22;11438;52.044;8.716;2022-12-31T00:29:46;15.60;99.90
22544;DHT22;11438;52.044;8.716;2022-12-31T00:32:12;15.60;99.90
22544;DHT22;11438;52.044;8.716;2022-12-31T00:34:38;15.60;99.90
22544;DHT22;11438;52.044;8.716;2022-12-31T00:37:03;15.60;99.90
22544;DHT22;11438;52.044;8.716;2022-12-31T00:39:29;15.60;99.90
22544;DHT22;11438;52.044;8.716;2022-12-31T00:41:54;15.60;99.90
22544;DHT22;11438;52.044;8.716;2022-12-31T00:44:20;15.60;99.90
22544;DHT22;11438;52.044;8.716;2022-12-31T00:46:45;15.70;99.90
22544;DHT22;11438;52.044;8.716;2022-12-31T00:49:11;15.70;99.90
22544;DHT22;11438;52.044;8.716;2022-12-31T00:51:36;15.60;99.90
22544;DHT22;11438;52.044;8.716;2022-12-31T00:54:02;15.60;99.90
22544;DHT22;11438;52.044;8.716;2022-12-31T00:56:29;15.60;99.90
22544;DHT22;11438;52.044;8.716;2022-12-31T00:58:55;15.60;99.90
22544;DHT22;11438;52.044;8.716;2022-12-31T01:01:28;15.60;99.90
22544;DHT22;11438;52.044;8.716;2022-12-31T01:03:59;15.60;99.90
22544;DHT22;11438;52.044;8.716;2022-12-31T01:06:25;15.60;99.90
22544;DHT22;11438;52.044;8.716;2022-12-31T01:08:51;15.60;99.90
22544;DHT22;11438;52.044;8.716;2022-12-31T01:11:18;15.70;99.90
22544;DHT22;11438;52.044;8.716;2022-12-31T01:13:45;15.60;99.90
22544;DHT22;11438;52.044;8.716;2022-12-31T01:16:12;15.70;99.90
22544;DHT22;11438;52.044;8.716;2022-12-31T01:18:38;15.70;99.90
22544;DHT22;11438;52.044;8.716;2022-12-31T01:21:08;15.70;99.90
22544;DHT22;11438;52.044;8.716;2022-12-31T01:23:34;15.70;99.90
22544;DHT22;11438;52.044;8.716;2022-12-31T01:26:02;15.70;99.90
22544;DHT22;11438;52.044;8.716;2022-12-31T01:28:28;15.70;99.90
22544;DHT22;11438;52.044;8.716;2022-12-31T01:30:54;15.70;99.90
22544;DHT22;11438;52.044;8.716;2022-12-31T01:33:19;15.70;99.90
22544;DHT22;11438;52.044;8.716;2022-12-31T01:35:45;15.70;99.90
22544;DHT22;11438;52.044;8.716;2022-12-31T01:38:11;15.70;99.90
22544;DHT22;11438;52.044;8.716;2022-12-31T01:40:37;15.70;99.90
22544;DHT22;11438;52.044;8.716;2022-12-31T01:43:16;15.70;99.90
22544;DHT22;11438;52.044;8.716;2022-12-31T01:45:45;15.70;99.90
22544;DHT22;11438;52.044;8.716;2022-12-31T01:48:13;15.70;99.90
22544;DHT22;11438;52.044;8.716;2022-12-31T01:50:40;15.70;99.90
22544;DHT22;11438;52.044;8.716;2022-12-31T01:53:07;15.70;99.90
22544;DHT22;11438;52.044;8.716;2022-12-31T01:55:40;15.70;99.90
22544;DHT22;11438;52.044;8.716;2022-12-31T01:58:15;15.70;99.90
22544;DHT22;11438;52.044;8.716;2022-12-31T02:00:42;15.70;99.90
22544;DHT22;11438;52.044;8.716;2022-12-31T02:03:08;15.70;99.90
22544;DHT22;11438;52.044;8.716;2022-12-31T02:05:42;15.70;99.90
22544;DHT22;11438;52.044;8.716;2022-12-31T02:08:10;15.70;99.90
22544;DHT22;11438;52.044;8.716;2022-12-31T02:10:36;15.80;99.90
22544;DHT22;11438;52.044;8.716;2022-12-31T02:13:02;15.80;99.90
22544;DHT22;11438;52.044;8.716;2022-12-31T02:18:19;15.80;99.90
22544;DHT22;11438;52.044;8.716;2022-12-31T02:24:20;15.80;99.90
22544;DHT22;11438;52.044;8.716;2022-12-31T02:27:07;15.80;99.90
22544;DHT22;11438;52.044;8.716;2022-12-31T02:32:14;15.80;99.90
22544;DHT22;11438;52.044;8.716;2022-12-31T02:34:49;15.80;99.90
22544;DHT22;11438;52.044;8.716;2022-12-31T02:37:19;15.80;99.90
22544;DHT22;11438;52.044;8.716;2022-12-31T02:39:47;15.80;99.90
22544;DHT22;11438;52.044;8.716;2022-12-31T02:42:13;15.90;99.90
22544;DHT22;11438;52.044;8.716;2022-12-31T02:44:40;15.80;99.90
22544;DHT22;11438;52.044;8.716;2022-12-31T02:52:29;15.90;99.90
22544;DHT22;11438;52.044;8.716;2022-12-31T02:55:25;15.90;99.90
22544;DHT22;11438;52.044;8.716;2022-12-31T03:00:52;15.90;99.90
22544;DHT22;11438;52.044;8.716;2022-12-31T03:03:37;15.90;99.90
22544;DHT22;11438;52.044;8.716;2022-12-31T03:06:05;15.90;99.90
22544;DHT22;11438;52.044;8.716;2022-12-31T03:08:32;15.90;99.90
22544;DHT22;11438;52.044;8.716;2022-12-31T03:11:17;15.90;99.90
22544;DHT22;11438;52.044;8.716;2022-12-31T03:14:03;15.90;99.90
22544;DHT22;11438;52.044;8.716;2022-12-31T03:16:28;15.90;99.90
22544;DHT22;11438;52.044;8.716;2022-12-31T03:18:54;15.90;99.90
22544;DHT22;11438;52.044;8.716;2022-12-31T03:21:38;16.00;99.90
22544;DHT22;11438;52.044;8.716;2022-12-31T03:24:22;15.90;99.90
22544;DHT22;11438;52.044;8.716;2022-12-31T03:27:06;16.00;99.90
22544;DHT22;11438;52.044;8.716;2022-12-31T03:29:31;16.00;99.90
22544;DHT22;11438;52.044;8.716;2022-12-31T03:31:57;16.00;99.90
22544;DHT22;11438;52.044;8.716;2022-12-31T03:34:22;16.00;99.90
22544;DHT22;11438;52.044;8.716;2022-12-31T03:36:48;16.00;99.90
22544;DHT22;11438;52.044;8.716;2022-12-31T03:39:13;16.00;99.90
22544;DHT22;11438;52.044;8.716;2022-12-31T03:41:39;16.10;99.90
22544;DHT22;11438;52.044;8.716;2022-12-31T03:44:04;16.10;99.90
22544;DHT22;11438;52.044;8.716;2022-12-31T03:46:30;16.10;99.90
22544;DHT22;11438;52.044;8.716;2022-12-31T03:48:55;16.10;99.90
22544;DHT22;11438;52.044;8.716;2022-12-31T03:51:21;16.20;99.90
22544;DHT22;11438;52.044;8.716;2022-12-31T03:53:46;16.20;99.90
22544;DHT22;11438;52.044;8.716;2022-12-31T03:56:12;16.20;99.90
22544;DHT22;11438;52.044;8.716;2022-12-31T03:58:37;16.20;99.90
22544;DHT22;11438;52.044;8.716;2022-12-31T04:01:03;16.30;99.90
22544;DHT22;11438;52.044;8.716;2022-12-31T04:03:28;16.30;99.90
22544;DHT22;11438;52.044;8.716;2022-12-31T04:05:54;16.40;99.90
22544;DHT22;11438;52.044;8.716;2022-12-31T04:08:20;16.40;99.90
22544;DHT22;11438;52.044;8.716;2022-12-31T04:10:45;16.40;99.90
22544;DHT22;11438;52.044;8.716;2022-12-31T04:13:11;16.40;99.90
22544;DHT22;11438;52.044;8.716;2022-12-31T04:15:36;16.40;99.90
22544;DHT22;11438;52.044;8.716;2022-12-31T04:18:02;16.50;99.90
22544;DHT22;11438;52.044;8.716;2022-12-31T04:20:27;16.50;99.90
22544;DHT22;11438;52.044;8.716;2022-12-31T04:22:53;16.60;99.90
22544;DHT22;11438;52.044;8.716;2022-12-31T04:25:18;16.60;99.90
22544;DHT22;11438;52.044;8.716;2022-12-31T04:27:44;16.60;99.90
22544;DHT22;11438;52.044;8.716;2022-12-31T04:30:11;16.60;99.90
22544;DHT22;11438;52.044;8.716;2022-12-31T04:32:37;16.60;99.90
22544;DHT22;11438;52.044;8.716;2022-12-31T04:35:02;16.60;99.90
22544;DHT22;11438;52.044;8.716;2022-12-31T04:37:28;16.50;99.90
22544;DHT22;11438;52.044;8.716;2022-12-31T04:39:53;16.50;99.90
22544;DHT22;11438;52.044;8.716;2022-12-31T04:42:19;16.50;99.90
22544;DHT22;11438;52.044;8.716;2022-12-31T04:44:45;16.50;99.90
22544;DHT22;11438;52.044;8.716;2022-12-31T04:47:10;16.40;99.90
22544;DHT22;11438;52.044;8.716;2022-12-31T04:49:36;16.40;99.90
22544;DHT22;11438;52.044;8.716;2022-12-31T04:52:01;16.40;99.90
22544;DHT22;11438;52.044;8.716;2022-12-31T04:54:27;16.40;99.90
22544;DHT22;11438;52.044;8.716;2022-12-31T04:56:53;16.40;99.90
22544;DHT22;11438;52.044;8.716;2022-12-31T04:59:18;16.40;99.90
22544;DHT22;11438;52.044;8.716;2022-12-31T05:01:44;16.40;99.90
22544;DHT22;11438;52.044;8.716;2022-12-31T05:04:09;16.40;99.90
22544;DHT22;11438;52.044;8.716;2022-12-31T05:06:35;16.40;99.90
22544;DHT22;11438;52.044;8.716;2022-12-31T05:09:00;16.40;99.90
22544;DHT22;11438;52.044;8.716;2022-12-31T05:11:26;16.40;99.90
22544;DHT22;11438;52.044;8.716;2022-12-31T05:13:51;16.40;99.90
22544;DHT22;11438;52.044;8.716;2022-12-31T05:16:17;16.40;99.90
22544;DHT22;11438;52.044;8.716;2022-12-31T05:18:42;16.40;99.90
22544;DHT22;11438;52.044;8.716;2022-12-31T05:21:09;16.40;99.90
22544;DHT22;11438;52.044;8.716;2022-12-31T05:23:39;16.40;99.90
22544;DHT22;11438;52.044;8.716;2022-12-31T05:26:05;16.40;99.90
22544;DHT22;11438;52.044;8.716;2022-12-31T05:28:30;16.40;99.90
22544;DHT22;11438;52.044;8.716;2022-12-31T05:30:56;16.40;99.90
22544;DHT22;11438;52.044;8.716;2022-12-31T05:33:22;16.40;99.90
22544;DHT22;11438;52.044;8.716;2022-12-31T05:35:47;16.50;99.90
22544;DHT22;11438;52.044;8.716;2022-12-31T05:38:13;16.40;99.90
22544;DHT22;11438;52.044;8.716;2022-12-31T05:40:38;16.40;99.90
22544;DHT22;11438;52.044;8.716;2022-12-31T05:43:04;16.40;99.90
22544;DHT22;11438;52.044;8.716;2022-12-31T05:45:29;16.40;99.90
22544;DHT22;11438;52.044;8.716;2022-12-31T05:47:55;16.40;99.90
22544;DHT22;11438;52.044;8.716;2022-12-31T05:50:20;16.40;99.90
22544;DHT22;11438;52.044;8.716;2022-12-31T05:52:46;16.40;99.90
22544;DHT22;11438;52.044;8.716;2022-12-31T05:55:12;16.40;99.90
22544;DHT22;11438;52.044;8.716;2022-12-31T05:57:38;16.40;99.90
22544;DHT22;11438;52.044;8.716;2022-12-31T06:00:05;16.40;99.90
22544;DHT22;11438;52.044;8.716;2022-12-31T06:02:31;16.40;99.90
22544;DHT22;11438;52.044;8.716;2022-12-31T06:04:56;16.40;99.90
22544;DHT22;11438;52.044;8.716;2022-12-31T06:07:22;16.50;99.90
22544;DHT22;11438;52.044;8.716;2022-12-31T06:09:47;16.50;99.90
22544;DHT22;11438;52.044;8.716;2022-12-31T06:12:13;16.50;99.90
22544;DHT22;11438;52.044;8.716;2022-12-31T06:14:39;16.50;99.90
22544;DHT22;11438;52.044;8.716;2022-12-31T06:17:04;16.50;99.90
22544;DHT22;11438;52.044;8.716;2022-12-31T06:19:30;16.50;99.90
22544;DHT22;11438;52.044;8.716;2022-12-31T06:21:55;16.50;99.90
22544;DHT22;11438;52.044;8.716;2022-12-31T06:24:21;16.60;99.90
22544;DHT22;11438;52.044;8.716;2022-12-31T06:26:46;16.60;99.90
22544;DHT22;11438;52.044;8.716;2022-12-31T06:29:12;16.60;99.90
22544;DHT22;11438;52.044;8.716;2022-12-31T06:31:37;16.60;99.90
22544;DHT22;11438;52.044;8.716;2022-12-31T06:34:03;16.70;99.90
22544;DHT22;11438;52.044;8.716;2022-12-31T06:36:29;16.70;99.90
22544;DHT22;11438;52.044;8.716;2022-12-31T06:38:54;16.70;99.90
22544;DHT22;11438;52.044;8.716;2022-12-31T06:41:20;16.70;99.90
22544;DHT22;11438;52.044;8.716;2022-12-31T06:43:46;16.80;99.90
22544;DHT22;11438;52.044;8.716;2022-12-31T06:46:15;16.80;99.90
22544;DHT22;11438;52.044;8.716;2022-12-31T06:48:41;16.80;99.90
22544;DHT22;11438;52.044;8.716;2022-12-31T06:51:11;16.80;99.90
22544;DHT22;11438;52.044;8.716;2022-12-31T06:53:37;16.90;99.90
22544;DHT22;11438;52.044;8.716;2022-12-31T06:56:08;16.90;99.90
22544;DHT22;11438;52.044;8.716;2022-12-31T06:58:34;16.90;99.90
22544;DHT22;11438;52.044;8.716;2022-12-31T07:09:31;17.10;99.90
22544;DHT22;11438;52.044;8.716;2022-12-31T07:12:10;17.10;99.90
22544;DHT22;11438;52.044;8.716;2022-12-31T07:14:58;17.10;99.90
22544;DHT22;11438;52.044;8.716;2022-12-31T07:17:29;17.20;99.90
22544;DHT22;11438;52.044;8.716;2022-12-31T07:22:24;17.30;99.90
22544;DHT22;11438;52.044;8.716;2022-12-31T07:24:50;17.30;99.90
22544;DHT22;11438;52.044;8.716;2022-12-31T07:30:19;17.40;99.90
22544;DHT22;11438;52.044;8.716;2022-12-31T07:35:56;17.50;99.90
22544;DHT22;11438;52.044;8.716;2022-12-31T07:38:45;17.60;99.90
22544;DHT22;11438;52.044;8.716;2022-12-31T07:41:33;17.60;99.90
22544;DHT22;11438;52.044;8.716;2022-12-31T07:44:28;17.70;99.90
22544;DHT22;11438;52.044;8.716;2022-12-31T07:46:59;17.80;99.90
22544;DHT22;11438;52.044;8.716;2022-12-31T07:49:27;17.80;99.90
22544;DHT22;11438;52.044;8.716;2022-12-31T07:51:53;17.90;99.90
22544;DHT22;11438;52.044;8.716;2022-12-31T07:54:19;17.90;99.90
22544;DHT22;11438;52.044;8.716;2022-12-31T07:56:45;17.90;99.90
22544;DHT22;11438;52.044;8.716;2022-12-31T07:59:46;18.00;99.90
22544;DHT22;11438;52.044;8.716;2022-12-31T08:02:24;18.00;99.90
22544;DHT22;11438;52.044;8.716;2022-12-31T08:07:39;18.10;99.90
22544;DHT22;11438;52.044;8.716;2022-12-31T08:10:15;18.10;99.90
22544;DHT22;11438;52.044;8.716;2022-12-31T08:12:45;18.20;99.90
22544;DHT22;11438;52.044;8.716;2022-12-31T08:15:18;18.20;99.90
22544;DHT22;11438;52.044;8.716;2022-12-31T08:17:44;18.20;99.90
22544;DHT22;11438;52.044;8.716;2022-12-31T08:20:14;18.30;99.90
22544;DHT22;11438;52.044;8.716;2022-12-31T08:28:23;18.40;99.90
22544;DHT22;11438;52.044;8.716;2022-12-31T08:31:15;18.40;99.90
22544;DHT22;11438;52.044;8.716;2022-12-31T08:45:45;18.70;99.60
22544;DHT22;11438;52.044;8.716;2022-12-31T08:48:37;18.70;99.50
22544;DHT22;11438;52.044;8.716;2022-12-31T08:51:04;18.70;99.60
22544;DHT22;11438;52.044;8.716;2022-12-31T08:53:29;18.80;99.60
22544;DHT22;11438;52.044;8.716;2022-12-31T08:56:03;18.80;99.10
22544;DHT22;11438;52.044;8.716;2022-12-31T08:58:47;18.80;99.20
22544;DHT22;11438;52.044;8.716;2022-12-31T09:01:19;18.90;99.10
22544;DHT22;11438;52.044;8.716;2022-12-31T09:03:58;18.90;99.20
22544;DHT22;11438;52.044;8.716;2022-12-31T09:06:31;19.00;99.10
22544;DHT22;11438;52.044;8.716;2022-12-31T09:12:03;19.00;99.00
22544;DHT22;11438;52.044;8.716;2022-12-31T09:14:43;19.10;99.40
22544;DHT22;11438;52.044;8.716;2022-12-31T09:19:54;19.10;98.70
22544;DHT22;11438;52.044;8.716;2022-12-31T09:22:20;19.10;98.60
22544;DHT22;11438;52.044;8.716;2022-12-31T09:24:46;19.10;98.70
22544;DHT22;11438;52.044;8.716;2022-12-31T09:27:20;19.10;98.70
22544;DHT22;11438;52.044;8.716;2022-12-31T09:35:02;19.20;98.40
22544;DHT22;11438;52.044;8.716;2022-12-31T09:37:50;19.20;98.50
22544;DHT22;11438;52.044;8.716;2022-12-31T09:40:45;19.30;98.30
22544;DHT22;11438;52.044;8.716;2022-12-31T09:46:35;19.30;98.30
22544;DHT22;11438;52.044;8.716;2022-12-31T09:51:53;19.40;97.90
22544;DHT22;11438;52.044;8.716;2022-12-31T09:54:31;19.30;98.10
22544;DHT22;11438;52.044;8.716;2022-12-31T10:08:36;19.40;97.60
22544;DHT22;11438;52.044;8.716;2022-12-31T10:12:17;19.50;97.80
22544;DHT22;11438;52.044;8.716;2022-12-31T10:17:12;19.50;97.70
22544;DHT22;11438;52.044;8.716;2022-12-31T10:25:49;19.50;97.50
22544;DHT22;11438;52.044;8.716;2022-12-31T10:34:25;19.60;97.00
22544;DHT22;11438;52.044;8.716;2022-12-31T10:36:56;19.50;97.10
22544;DHT22;11438;52.044;8.716;2022-12-31T10:42:35;19.60;97.00
22544;DHT22;11438;52.044;8.716;2022-12-31T10:48:20;19.60;96.60
22544;DHT22;11438;52.044;8.716;2022-12-31T10:51:01;19.60;97.00
22544;DHT22;11438;52.044;8.716;2022-12-31T10:54:02;19.70;96.80
22544;DHT22;11438;52.044;8.716;2022-12-31T10:57:05;19.70;96.60
22544;DHT22;11438;52.044;8.716;2022-12-31T10:59:42;19.70;96.80
22544;DHT22;11438;52.044;8.716;2022-12-31T11:02:57;19.70;97.00
22544;DHT22;11438;52.044;8.716;2022-12-31T11:16:25;19.70;96.70
22544;DHT22;11438;52.044;8.716;2022-12-31T11:19:56;19.70;96.60
22544;DHT22;11438;52.044;8.716;2022-12-31T11:22:11;19.70;96.40
22544;DHT22;11438;52.044;8.716;2022-12-31T11:25:46;19.80;96.60
22544;DHT22;11438;52.044;8.716;2022-12-31T11:30:26;19.80;97.10
22544;DHT22;11438;52.044;8.716;2022-12-31T11:33:01;19.80;96.90
22544;DHT22;11438;52.044;8.716;2022-12-31T11:38:20;19.80;96.70
22544;DHT22;11438;52.044;8.716;2022-12-31T11:41:01;19.80;96.30
22544;DHT22;11438;52.044;8.716;2022-12-31T11:43:45;19.90;96.60
22544;DHT22;11438;52.044;8.716;2022-12-31T11:52:22;19.90;96.00
22544;DHT22;11438;52.044;8.716;2022-12-31T11:55:16;19.90;95.90
22544;DHT22;11438;52.044;8.716;2022-12-31T11:57:48;20.00;96.20
22544;DHT22;11438;52.044;8.716;2022-12-31T12:00:20;20.00;96.00
22544;DHT22;11438;52.044;8.716;2022-12-31T12:03:01;20.00;96.10
22544;DHT22;11438;52.044;8.716;2022-12-31T12:05:27;20.10;95.60
22544;DHT22;11438;52.044;8.716;2022-12-31T12:07:54;20.10;95.70
22544;DHT22;11438;52.044;8.716;2022-12-31T12:10:31;20.10;95.60
22544;DHT22;11438;52.044;8.716;2022-12-31T12:12:59;20.20;95.50
22544;DHT22;11438;52.044;8.716;2022-12-31T12:15:32;20.20;95.50
22544;DHT22;11438;52.044;8.716;2022-12-31T12:18:05;20.30;95.50
22544;DHT22;11438;52.044;8.716;2022-12-31T12:20:37;20.30;95.30
22544;DHT22;11438;52.044;8.716;2022-12-31T12:23:15;20.30;95.40
22544;DHT22;11438;52.044;8.716;2022-12-31T12:25:43;20.30;95.20
22544;DHT22;11438;52.044;8.716;2022-12-31T12:28:42;20.40;95.70
22544;DHT22;11438;52.044;8.716;2022-12-31T12:31:20;20.40;95.30
22544;DHT22;11438;52.044;8.716;2022-12-31T12:33:47;20.40;94.80
22544;DHT22;11438;52.044;8.716;2022-12-31T12:36:14;20.50;95.20
22544;DHT22;11438;52.044;8.716;2022-12-31T12:38:41;20.40;95.00
22544;DHT22;11438;52.044;8.716;2022-12-31T12:41:19;20.50;94.80
22544;DHT22;11438;52.044;8.716;2022-12-31T12:43:45;20.50;94.80
22544;DHT22;11438;52.044;8.716;2022-12-31T12:46:30;20.50;94.90
22544;DHT22;11438;52.044;8.716;2022-12-31T12:48:57;20.50;94.70
22544;DHT22;11438;52.044;8.716;2022-12-31T13:00:32;20.50;95.20
22544;DHT22;11438;52.044;8.716;2022-12-31T13:08:40;20.50;94.80
22544;DHT22;11438;52.044;8.716;2022-12-31T13:16:54;20.50;95.00
22544;DHT22;11438;52.044;8.716;2022-12-31T13:19:32;20.50;94.60
22544;DHT22;11438;52.044;8.716;2022-12-31T13:24:44;20.50;94.50
22544;DHT22;11438;52.044;8.716;2022-12-31T13:29:45;20.60;94.60
22544;DHT22;11438;52.044;8.716;2022-12-31T13:32:16;20.60;94.40
22544;DHT22;11438;52.044;8.716;2022-12-31T13:34:45;20.50;94.40
22544;DHT22;11438;52.044;8.716;2022-12-31T13:39:44;20.60;94.10
22544;DHT22;11438;52.044;8.716;2022-12-31T13:42:18;20.50;93.90
22544;DHT22;11438;52.044;8.716;2022-12-31T13:44:50;20.50;93.80
22544;DHT22;11438;52.044;8.716;2022-12-31T13:47:44;20.60;93.80
22544;DHT22;11438;52.044;8.716;2022-12-31T13:50:18;20.50;94.00
22544;DHT22;11438;52.044;8.716;2022-12-31T13:55:34;20.60;94.00
22544;DHT22;11438;52.044;8.716;2022-12-31T13:58:36;20.50;94.30
22544;DHT22;11438;52.044;8.716;2022-12-31T14:01:22;20.50;94.60
22544;DHT22;11438;52.044;8.716;2022-12-31T14:04:14;20.50;94.70
22544;DHT22;11438;52.044;8.716;2022-12-31T14:06:51;20.50;94.90
22544;DHT22;11438;52.044;8.716;2022-12-31T14:09:22;20.40;94.90
22544;DHT22;11438;52.044;8.716;2022-12-31T14:11:59;20.40;95.00
22544;DHT22;11438;52.044;8.716;2022-12-31T14:20:10;20.30;95.20
22544;DHT22;11438;52.044;8.716;2022-12-31T14:25:48;20.30;95.60
22544;DHT22;11438;52.044;8.716;2022-12-31T14:28:20;20.20;95.60
22544;DHT22;11438;52.044;8.716;2022-12-31T14:30:50;20.20;95.70
22544;DHT22;11438;52.044;8.716;2022-12-31T14:33:33;20.20;95.70
22544;DHT22;11438;52.044;8.716;2022-12-31T14:36:11;20.10;95.70
22544;DHT22;11438;52.044;8.716;2022-12-31T14:38:46;20.10;95.80
22544;DHT22;11438;52.044;8.716;2022-12-31T14:44:31;20.10;95.90
22544;DHT22;11438;52.044;8.716;2022-12-31T14:47:06;20.00;95.80
22544;DHT22;11438;52.044;8.716;2022-12-31T14:52:29;20.00;95.90
22544;DHT22;11438;52.044;8.716;2022-12-31T14:54:59;19.90;96.00
22544;DHT22;11438;52.044;8.716;2022-12-31T14:57:32;19.90;95.90
22544;DHT22;11438;52.044;8.716;2022-12-31T15:00:25;19.90;96.00
22544;DHT22;11438;52.044;8.716;2022-12-31T15:02:57;19.90;96.10
22544;DHT22;11438;52.044;8.716;2022-12-31T15:05:27;19.90;96.20
22544;DHT22;11438;52.044;8.716;2022-12-31T15:07:58;19.80;96.20
22544;DHT22;11438;52.044;8.716;2022-12-31T15:19:36;19.70;96.50
22544;DHT22;11438;52.044;8.716;2022-12-31T15:24:46;19.70;96.40
22544;DHT22;11438;52.044;8.716;2022-12-31T15:27:43;19.60;96.40
22544;DHT22;11438;52.044;8.716;2022-12-31T15:32:56;19.60;96.70
22544;DHT22;11438;52.044;8.716;2022-12-31T15:35:26;19.60;96.30
22544;DHT22;11438;52.044;8.716;2022-12-31T15:37:58;19.60;96.20
22544;DHT22;11438;52.044;8.716;2022-12-31T15:40:25;19.50;96.10
22544;DHT22;11438;52.044;8.716;2022-12-31T15:43:01;19.50;96.10
22544;DHT22;11438;52.044;8.716;2022-12-31T15:45:35;19.50;96.10
22544;DHT22;11438;52.044;8.716;2022-12-31T15:48:07;19.50;96.00
22544;DHT22;11438;52.044;8.716;2022-12-31T15:50:35;19.40;96.00
22544;DHT22;11438;52.044;8.716;2022-12-31T15:53:05;19.40;96.00
22544;DHT22;11438;52.044;8.716;2022-12-31T15:55:41;19.40;96.00
22544;DHT22;11438;52.044;8.716;2022-12-31T15:58:14;19.40;95.90
22544;DHT22;11438;52.044;8.716;2022-12-31T16:01:23;19.40;95.80
22544;DHT22;11438;52.044;8.716;2022-12-31T16:04:11;19.40;95.80
22544;DHT22;11438;52.044;8.716;2022-12-31T16:06:38;19.30;95.70
22544;DHT22;11438;52.044;8.716;2022-12-31T16:09:19;19.30;95.70
22544;DHT22;11438;52.044;8.716;2022-12-31T16:11:45;19.30;95.60
22544;DHT22;11438;52.044;8.716;2022-12-31T16:14:37;19.30;95.60
22544;DHT22;11438;52.044;8.716;2022-12-31T16:17:04;19.30;95.40
22544;DHT22;11438;52.044;8.716;2022-12-31T16:19:43;19.20;95.50
22544;DHT22;11438;52.044;8.716;2022-12-31T16:22:17;19.20;95.40
22544;DHT22;11438;52.044;8.716;2022-12-31T16:24:58;19.20;95.50
22544;DHT22;11438;52.044;8.716;2022-12-31T16:27:26;19.20;95.40
22544;DHT22;11438;52.044;8.716;2022-12-31T16:30:02;19.20;95.60
22544;DHT22;11438;52.044;8.716;2022-12-31T16:32:37;19.20;95.60
22544;DHT22;11438;52.044;8.716;2022-12-31T16:35:19;19.20;95.70
22544;DHT22;11438;52.044;8.716;2022-12-31T16:37:45;19.20;95.70
22544;DHT22;11438;52.044;8.716;2022-12-31T16:40:19;19.20;95.80
22544;DHT22;11438;52.044;8.716;2022-12-31T16:42:46;19.20;95.80
22544;DHT22;11438;52.044;8.716;2022-12-31T16:45:38;19.20;95.80
22544;DHT22;11438;52.044;8.716;2022-12-31T16:48:15;19.20;95.90
22544;DHT22;11438;52.044;8.716;2022-12-31T16:50:49;19.20;95.80
22544;DHT22;11438;52.044;8.716;2022-12-31T16:53:18;19.20;95.80
22544;DHT22;11438;52.044;8.716;2022-12-31T16:56:01;19.20;95.90
22544;DHT22;11438;52.044;8.716;2022-12-31T16:58:32;19.10;95.90
22544;DHT22;11438;52.044;8.716;2022-12-31T17:01:17;19.10;95.90
22544;DHT22;11438;52.044;8.716;2022-12-31T17:03:46;19.10;95.90
22544;DHT22;11438;52.044;8.716;2022-12-31T17:06:15;19.10;95.80
22544;DHT22;11438;52.044;8.716;2022-12-31T17:08:46;19.10;95.70
22544;DHT22;11438;52.044;8.716;2022-12-31T17:11:26;19.10;95.90
22544;DHT22;11438;52.044;8.716;2022-12-31T17:16:26;19.00;95.80
22544;DHT22;11438;52.044;8.716;2022-12-31T17:18:52;19.00;95.80
22544;DHT22;11438;52.044;8.716;2022-12-31T17:21:19;19.00;95.80
22544;DHT22;11438;52.044;8.716;2022-12-31T17:23:52;19.00;95.70
22544;DHT22;11438;52.044;8.716;2022-12-31T17:26:23;19.00;95.70
22544;DHT22;11438;52.044;8.716;2022-12-31T17:28:51;19.00;95.70
22544;DHT22;11438;52.044;8.716;2022-12-31T17:31:38;18.90;95.50
22544;DHT22;11438;52.044;8.716;2022-12-31T17:36:30;18.90;95.60
22544;DHT22;11438;52.044;8.716;2022-12-31T17:39:16;18.90;95.50
22544;DHT22;11438;52.044;8.716;2022-12-31T17:41:46;18.90;95.50
22544;DHT22;11438;52.044;8.716;2022-12-31T17:44:19;18.90;95.30
22544;DHT22;11438;52.044;8.716;2022-12-31T17:46:45;18.90;95.60
22544;DHT22;11438;52.044;8.716;2022-12-31T17:49:12;18.90;95.40
22544;DHT22;11438;52.044;8.716;2022-12-31T17:51:38;18.90;95.30
22544;DHT22;11438;52.044;8.716;2022-12-31T17:54:30;18.90;95.10
22544;DHT22;11438;52.044;8.716;2022-12-31T17:56:56;18.90;95.10
22544;DHT22;11438;52.044;8.716;2022-12-31T17:59:31;18.90;95.10
22544;DHT22;11438;52.044;8.716;2022-12-31T18:02:00;18.90;95.00
22544;DHT22;11438;52.044;8.716;2022-12-31T18:04:25;18.90;94.90
22544;DHT22;11438;52.044;8.716;2022-12-31T18:06:51;18.90;94.80
22544;DHT22;11438;52.044;8.716;2022-12-31T18:09:16;18.90;94.70
22544;DHT22;11438;52.044;8.716;2022-12-31T18:11:42;18.90;94.70
22544;DHT22;11438;52.044;8.716;2022-12-31T18:14:13;18.90;94.60
22544;DHT22;11438;52.044;8.716;2022-12-31T18:16:38;18.90;94.50
22544;DHT22;11438;52.044;8.716;2022-12-31T18:19:13;18.90;94.50
22544;DHT22;11438;52.044;8.716;2022-12-31T18:21:40;18.90;94.30
22544;DHT22;11438;52.044;8.716;2022-12-31T18:24:11;18.90;94.30
22544;DHT22;11438;52.044;8.716;2022-12-31T18:26:37;18.90;94.10
22544;DHT22;11438;52.044;8.716;2022-12-31T18:29:13;18.90;94.00
22544;DHT22;11438;52.044;8.716;2022-12-31T18:31:41;18.90;94.00
22544;DHT22;11438;52.044;8.716;2022-12-31T18:34:11;18.90;94.00
22544;DHT22;11438;52.044;8.716;2022-12-31T18:36:37;18.90;94.00
22544;DHT22;11438;52.044;8.716;2022-12-31T18:39:02;18.90;93.90
22544;DHT22;11438;52.044;8.716;2022-12-31T18:41:42;18.90;93.90
22544;DHT22;11438;52.044;8.716;2022-12-31T18:44:11;18.90;93.80
22544;DHT22;11438;52.044;8.716;2022-12-31T18:46:37;18.90;93.70
22544;DHT22;11438;52.044;8.716;2022-12-31T18:49:03;18.90;93.80
22544;DHT22;11438;52.044;8.716;2022-12-31T18:51:28;18.90;93.60
22544;DHT22;11438;52.044;8.716;2022-12-31T18:53:54;18.90;93.50
22544;DHT22;11438;52.044;8.716;2022-12-31T18:56:20;18.90;93.50
22544;DHT22;11438;52.044;8.716;2022-12-31T18:58:47;18.90;93.40
22544;DHT22;11438;52.044;8.716;2022-12-31T19:01:31;18.90;93.30
22544;DHT22;11438;52.044;8.716;2022-12-31T19:04:16;18.90;93.10
22544;DHT22;11438;52.044;8.716;2022-12-31T19:06:44;18.90;93.20
22544;DHT22;11438;52.044;8.716;2022-12-31T19:09:10;18.90;93.10